Time;durP1;ratioP1;P1;durP2;ratioP2;P2;SDS_P1;SDS_P2;PMS_P1;PMS_P2;Temp;Humidity;BMP_temperature;BMP_pressure;BME280_temperature;BME280_humidity;BME280_pressure;Samples;Min_cycle;Max_cycle;Signal;HPM_P1;HPM_P2
2021/06/22 00:00:25;;;;;;;17.25;11.93;;;13.70;55.90;;;;;;5062885;28;20480;-80
2021/06/22 00:02:51;;;;;;;14.05;9.70;;;13.60;56.00;;;;;;5062962;28;20025;-80
2021/06/22 00:05:19;;;;;;;18.90;9.75;;;13.60;56.00;;;;;;5029628;28;20380;-79
2021/06/22 00:07:46;;;;;;;19.35;11.43;;;13.60;56.10;;;;;;5029325;28;20456;-81
2021/06/22 00:10:12;;;;;;;18.23;10.65;;;13.50;56.20;;;;;;5029727;28;20033;-81
2021/06/22 00:12:38;;;;;;;15.43;10.52;;;13.50;56.20;;;;;;5046278;28;20451;-80
2021/06/22 00:15:05;;;;;;;17.08;12.10;;;13.50;56.20;;;;;;5062839;28;20152;-80
2021/06/22 00:17:31;;;;;;;16.60;10.88;;;13.50;56.30;;;;;;5046500;28;20025;-79
2021/06/22 00:19:57;;;;;;;20.20;11.63;;;13.50;56.20;;;;;;5046191;28;20113;-80
2021/06/22 00:22:23;;;;;;;19.67;11.35;;;13.50;56.30;;;;;;5047836;28;20104;-80
2021/06/22 00:24:49;;;;;;;16.95;10.48;;;13.50;56.20;;;;;;5050301;28;20037;-79
2021/06/22 00:27:15;;;;;;;15.68;11.48;;;13.50;56.30;;;;;;5066344;28;20440;-80
2021/06/22 00:29:43;;;;;;;17.48;11.35;;;13.40;56.40;;;;;;5066334;28;20030;-81
2021/06/22 00:32:10;;;;;;;17.42;11.50;;;13.40;56.50;;;;;;5050002;28;20419;-79
2021/06/22 00:34:36;;;;;;;19.75;10.95;;;13.40;56.70;;;;;;5033126;28;20079;-80
2021/06/22 00:37:02;;;;;;;16.80;11.48;;;13.30;57.10;;;;;;5066620;28;20032;-80
2021/06/22 00:39:29;;;;;;;17.00;11.50;;;13.20;57.30;;;;;;5033355;28;20408;-79
2021/06/22 00:41:55;;;;;;;18.38;11.52;;;13.10;57.40;;;;;;5050090;28;20038;-80
2021/06/22 00:44:21;;;;;;;14.57;11.02;;;13.10;57.50;;;;;;5034291;28;20090;-81
2021/06/22 00:46:46;;;;;;;17.73;10.10;;;13.10;57.60;;;;;;5033976;28;20471;-80
2021/06/22 00:49:12;;;;;;;22.55;12.00;;;13.10;57.60;;;;;;5065985;28;20033;-80
2021/06/22 00:51:38;;;;;;;17.48;10.75;;;13.10;57.60;;;;;;5032840;28;20033;-81
2021/06/22 00:54:04;;;;;;;13.38;10.18;;;13.10;57.50;;;;;;5049388;28;20201;-80
2021/06/22 00:56:30;;;;;;;19.05;11.30;;;13.10;57.40;;;;;;5065680;28;20026;-81
2021/06/22 00:58:56;;;;;;;17.60;10.10;;;13.10;57.50;;;;;;5032564;28;20029;-80
2021/06/22 01:01:22;;;;;;;14.45;10.10;;;13.10;57.60;;;;;;5033866;28;20045;-80
2021/06/22 01:03:48;;;;;;;15.57;10.63;;;13.10;57.60;;;;;;5032533;28;20504;-80
2021/06/22 01:06:14;;;;;;;16.52;10.25;;;13.10;57.70;;;;;;5048807;28;20034;-79
2021/06/22 01:08:40;;;;;;;14.82;10.73;;;13.10;57.60;;;;;;5032136;28;20052;-79
2021/06/22 01:11:06;;;;;;;16.33;10.20;;;13.10;57.70;;;;;;5065695;28;20086;-80
2021/06/22 01:13:32;;;;;;;19.60;11.77;;;13.00;57.70;;;;;;5065563;28;20471;-80
2021/06/22 01:15:57;;;;;;;18.92;11.13;;;13.00;57.80;;;;;;5048822;28;20037;-79
2021/06/22 01:18:23;;;;;;;19.75;10.70;;;13.00;57.90;;;;;;5048858;28;20107;-80
2021/06/22 01:20:49;;;;;;;17.88;12.25;;;12.90;58.00;;;;;;5032405;28;20567;-80
2021/06/22 01:23:14;;;;;;;17.67;12.18;;;12.90;58.00;;;;;;5032413;28;20026;-80
2021/06/22 01:25:40;;;;;;;15.63;11.23;;;12.80;58.20;;;;;;5048740;28;20079;-81
2021/06/22 01:28:06;;;;;;;18.38;12.25;;;12.80;58.40;;;;;;5048509;28;20037;-80
2021/06/22 01:30:33;;;;;;;21.60;12.75;;;12.60;58.50;;;;;;5065248;28;20059;-80
2021/06/22 01:33:00;;;;;;;18.65;12.15;;;12.60;58.70;;;;;;5065103;28;20021;-80
2021/06/22 01:35:27;;;;;;;18.05;11.43;;;12.60;58.80;;;;;;5064739;28;20124;-80
2021/06/22 01:37:59;;;;;;;18.42;11.73;;;12.50;58.80;;;;;;5031887;28;20032;-80
2021/06/22 01:40:26;;;;;;;19.95;12.68;;;12.50;59.00;;;;;;5033293;28;20025;-80
2021/06/22 01:42:56;;;;;;;19.60;11.00;;;12.50;59.00;;;;;;5049009;28;20033;-80
2021/06/22 01:45:21;;;;;;;;;;;12.50;59.10;;;;;;5033658;28;20032;-81
2021/06/22 01:47:47;;;;;;;15.52;11.20;;;12.40;58.70;;;;;;5032951;28;19909;-80
2021/06/22 01:50:15;;;;;;;18.73;11.32;;;12.30;58.70;;;;;;5031655;28;20029;-80
2021/06/22 01:52:42;;;;;;;21.77;11.13;;;12.20;59.10;;;;;;5065150;28;20094;-80
2021/06/22 01:57:55;;;;;;;14.73;10.48;;;12.10;59.50;;;;;;5032016;28;20545;-80
2021/06/22 02:00:20;;;;;;;17.60;11.18;;;12.10;59.50;;;;;;5064634;28;20022;-81
2021/06/22 02:02:46;;;;;;;17.58;11.32;;;12.10;59.70;;;;;;5048124;28;20078;-80
2021/06/22 02:05:13;;;;;;;17.83;10.45;;;12.10;59.80;;;;;;5031378;28;20033;-79
2021/06/22 02:07:39;;;;;;;17.10;11.77;;;12.10;59.80;;;;;;5064502;28;20487;-79
2021/06/22 02:10:06;;;;;;;15.07;10.63;;;12.10;59.90;;;;;;5048282;28;20092;-80
2021/06/22 02:12:32;;;;;;;19.30;11.07;;;12.10;60.00;;;;;;5064399;28;20492;-79
2021/06/22 02:14:58;;;;;;;17.30;11.52;;;12.10;60.00;;;;;;5047967;28;20033;-80
2021/06/22 02:17:23;;;;;;;17.73;11.02;;;12.10;60.00;;;;;;5064346;28;20025;-80
2021/06/22 02:19:49;;;;;;;18.95;11.77;;;12.00;60.10;;;;;;5047555;28;20136;-79
2021/06/22 02:22:15;;;;;;;15.65;10.38;;;12.00;60.20;;;;;;5048187;28;20021;-80
2021/06/22 02:24:41;;;;;;;17.17;11.40;;;12.00;60.20;;;;;;5047613;28;20025;-79
2021/06/22 02:27:07;;;;;;;16.55;11.05;;;12.00;60.20;;;;;;5047415;28;20030;-80
2021/06/22 02:29:33;;;;;;;19.40;10.93;;;11.90;60.30;;;;;;5047522;28;20026;-80
2021/06/22 02:31:58;;;;;;;17.58;10.80;;;11.90;60.40;;;;;;5064100;28;20476;-80
2021/06/22 02:34:24;;;;;;;15.98;11.50;;;11.90;60.90;;;;;;5047381;28;20080;-80
2021/06/22 02:36:50;;;;;;;17.23;10.73;;;11.90;60.40;;;;;;5047410;28;20030;-80
2021/06/22 02:39:16;;;;;;;19.30;10.77;;;11.90;60.40;;;;;;5047378;28;20365;-79
2021/06/22 02:41:41;;;;;;;19.35;12.70;;;11.80;60.50;;;;;;5031158;28;20105;-80
2021/06/22 02:44:08;;;;;;;16.80;11.25;;;11.80;60.70;;;;;;5047533;28;20464;-79
2021/06/22 02:46:33;;;;;;;18.10;11.40;;;11.60;60.70;;;;;;5063162;28;20041;-79
2021/06/22 02:48:59;;;;;;;17.15;11.10;;;11.50;61.00;;;;;;5047098;28;20035;-80
2021/06/22 02:51:25;;;;;;;18.55;10.95;;;11.40;61.20;;;;;;5047488;28;20040;-79
2021/06/22 02:53:50;;;;;;;18.42;11.27;;;11.30;61.30;;;;;;5047469;28;20025;-80
2021/06/22 02:56:16;;;;;;;15.98;11.75;;;11.30;61.40;;;;;;5047825;28;20061;-79
2021/06/22 02:58:42;;;;;;;16.25;10.80;;;11.30;61.50;;;;;;5047633;28;20120;-79
2021/06/22 03:01:08;;;;;;;22.73;12.07;;;11.20;61.60;;;;;;5047277;28;20033;-80
2021/06/22 03:03:34;;;;;;;17.48;11.00;;;11.20;61.60;;;;;;5032148;28;20029;-80
2021/06/22 03:06:00;;;;;;;19.98;11.32;;;11.10;61.70;;;;;;5063690;28;20036;-80
2021/06/22 03:08:25;;;;;;;18.48;11.68;;;11.10;61.90;;;;;;5030773;28;20049;-79
2021/06/22 03:10:51;;;;;;;21.70;11.13;;;11.00;61.90;;;;;;5047371;28;20029;-79
2021/06/22 03:13:17;;;;;;;16.95;11.60;;;11.00;62.00;;;;;;5030584;28;20484;-79
2021/06/22 03:15:43;;;;;;;16.13;11.52;;;11.00;62.10;;;;;;5047325;28;20045;-80
2021/06/22 03:18:08;;;;;;;15.88;10.85;;;10.90;62.20;;;;;;5030709;28;20072;-79
2021/06/22 03:20:34;;;;;;;15.30;11.13;;;10.90;62.30;;;;;;5047172;28;20021;-79
2021/06/22 03:23:00;;;;;;;17.00;11.27;;;10.90;62.40;;;;;;5030269;28;20025;-79
2021/06/22 03:25:25;;;;;;;24.50;10.95;;;10.80;62.50;;;;;;5046764;28;20030;-80
2021/06/22 03:27:51;;;;;;;17.00;11.35;;;10.80;62.50;;;;;;5030112;28;20435;-79
2021/06/22 03:30:17;;;;;;;16.73;11.75;;;10.80;63.10;;;;;;5046615;28;20419;-79
2021/06/22 03:32:45;;;;;;;16.25;10.93;;;10.80;62.70;;;;;;5030226;28;20033;-81
2021/06/22 03:35:12;;;;;;;18.20;12.27;;;10.80;62.70;;;;;;5047321;28;20392;-80
2021/06/22 03:37:38;;;;;;;17.33;10.63;;;10.80;62.70;;;;;;5047245;28;20029;-80
2021/06/22 03:40:05;;;;;;;21.80;12.48;;;10.80;62.80;;;;;;5030049;28;20113;-79
2021/06/22 03:42:36;;;;;;;22.52;12.63;;;10.80;62.90;;;;;;5063632;28;20025;-80
2021/06/22 03:45:05;;;;;;;17.90;11.85;;;10.80;62.90;;;;;;5063554;28;20052;-80
2021/06/22 03:47:32;;;;;;;18.23;12.10;;;10.80;63.10;;;;;;5063676;28;20430;-79
2021/06/22 03:49:57;;;;;;;19.95;11.70;;;10.80;63.10;;;;;;5046951;28;20041;-80
2021/06/22 03:52:23;;;;;;;16.17;11.40;;;10.80;63.10;;;;;;5046925;28;20030;-80
2021/06/22 03:54:49;;;;;;;21.88;12.23;;;10.80;63.10;;;;;;5046695;28;20092;-80
2021/06/22 03:57:15;;;;;;;17.60;11.57;;;10.70;63.10;;;;;;5031145;28;20037;-80
2021/06/22 03:59:41;;;;;;;15.60;10.95;;;10.70;63.20;;;;;;5033709;28;20510;-79
2021/06/22 04:02:07;;;;;;;21.23;12.65;;;10.60;63.30;;;;;;5050630;28;20030;-80
2021/06/22 04:04:33;;;;;;;17.83;11.13;;;10.60;63.30;;;;;;5050747;28;20151;-79
2021/06/22 04:06:58;;;;;;;19.83;12.63;;;10.60;63.40;;;;;;5067132;28;20029;-80
2021/06/22 04:09:26;;;;;;;16.92;11.70;;;10.50;63.50;;;;;;5050305;28;20049;-79
2021/06/22 04:11:52;;;;;;;20.65;12.57;;;10.60;63.60;;;;;;5050423;28;20037;-80
2021/06/22 04:14:17;;;;;;;22.95;12.15;;;10.60;63.70;;;;;;5050497;28;20037;-80
2021/06/22 04:16:43;;;;;;;18.02;11.68;;;10.60;63.70;;;;;;5033697;28;20040;-79
2021/06/22 04:19:09;;;;;;;17.63;12.52;;;10.60;63.80;;;;;;5050324;28;20033;-80
2021/06/22 04:21:34;;;;;;;18.35;10.65;;;10.60;63.80;;;;;;5050158;28;20072;-79
2021/06/22 04:24:00;;;;;;;19.85;12.32;;;10.60;63.70;;;;;;5033727;28;20022;-80
2021/06/22 04:26:26;;;;;;;20.02;12.15;;;10.70;63.80;;;;;;5033601;28;20026;-80
2021/06/22 04:28:51;;;;;;;20.30;12.38;;;10.70;63.80;;;;;;5049986;28;20415;-81
2021/06/22 04:31:17;;;;;;;17.77;11.40;;;10.80;63.80;;;;;;5050021;28;20083;-79
2021/06/22 04:33:43;;;;;;;19.80;11.77;;;10.90;63.80;;;;;;5066741;28;20499;-80
2021/06/22 04:36:08;;;;;;;15.20;11.30;;;10.90;63.80;;;;;;5033442;28;20033;-80
2021/06/22 04:38:34;;;;;;;20.15;11.85;;;11.00;63.80;;;;;;5049589;28;20479;-79
2021/06/22 04:41:00;;;;;;;18.92;12.80;;;11.00;63.70;;;;;;5049655;28;20065;-80
2021/06/22 04:43:26;;;;;;;20.15;11.73;;;11.00;63.80;;;;;;5066647;28;20033;-80
2021/06/22 04:45:51;;;;;;;18.83;12.68;;;11.10;63.80;;;;;;5033355;28;20105;-80
2021/06/22 04:48:17;;;;;;;18.25;13.13;;;11.10;63.80;;;;;;5049785;28;20044;-80
2021/06/22 04:50:43;;;;;;;19.65;12.05;;;11.10;63.80;;;;;;5049724;28;20061;-79
2021/06/22 04:53:08;;;;;;;18.95;12.05;;;11.10;63.80;;;;;;5066323;28;20075;-81
2021/06/22 04:55:34;;;;;;;17.45;12.60;;;11.20;63.90;;;;;;5049951;28;20033;-80
2021/06/22 04:58:00;;;;;;;19.80;12.13;;;11.40;63.80;;;;;;5049193;28;20076;-79
2021/06/22 05:00:27;;;;;;;17.25;11.50;;;11.50;63.70;;;;;;5032822;28;20029;-80
2021/06/22 05:02:53;;;;;;;17.10;11.90;;;11.70;63.60;;;;;;5049536;28;20033;-80
2021/06/22 05:05:19;;;;;;;19.02;12.40;;;11.80;63.50;;;;;;5049369;28;20480;-79
2021/06/22 05:07:45;;;;;;;22.15;12.00;;;11.90;63.40;;;;;;5065753;28;20057;-80
2021/06/22 05:10:11;;;;;;;18.60;11.00;;;12.00;63.30;;;;;;5031677;28;20037;-80
2021/06/22 05:12:40;;;;;;;21.63;13.07;;;12.00;63.30;;;;;;5049591;28;20068;-80
2021/06/22 05:15:06;;;;;;;18.77;12.68;;;12.20;63.30;;;;;;5065854;28;20030;-80
2021/06/22 05:17:32;;;;;;;18.40;11.35;;;12.20;63.10;;;;;;5032566;28;20044;-80
2021/06/22 05:19:58;;;;;;;18.63;11.88;;;12.40;63.50;;;;;;5032590;28;20038;-80
2021/06/22 05:22:24;;;;;;;49.60;14.85;;;12.40;62.80;;;;;;5049489;28;20086;-80
2021/06/22 05:24:49;;;;;;;19.27;11.65;;;12.40;62.80;;;;;;5049025;28;20136;-80
2021/06/22 05:27:15;;;;;;;26.92;12.43;;;12.50;63.00;;;;;;5048965;28;20176;-80
2021/06/22 05:29:42;;;;;;;18.92;11.65;;;12.60;63.00;;;;;;5049354;28;20045;-80
2021/06/22 05:32:09;;;;;;;22.20;11.30;;;12.70;63.00;;;;;;5048596;28;20025;-80
2021/06/22 05:34:35;;;;;;;17.83;11.20;;;12.80;63.00;;;;;;5033551;28;20029;-80
2021/06/22 05:37:01;;;;;;;16.55;11.45;;;12.90;62.90;;;;;;5065731;28;20468;-80
2021/06/22 05:39:27;;;;;;;21.00;10.98;;;13.00;62.80;;;;;;5048723;28;20087;-81
2021/06/22 05:41:52;;;;;;;17.13;10.93;;;13.00;62.60;;;;;;5033600;28;20026;-80
2021/06/22 05:44:18;;;;;;;26.98;12.07;;;13.20;62.50;;;;;;5049434;28;20125;-80
2021/06/22 05:46:44;;;;;;;17.23;10.80;;;13.30;62.50;;;;;;5032520;28;20064;-80
2021/06/22 05:49:10;;;;;;;19.70;11.43;;;13.60;62.40;;;;;;5065831;28;20034;-81
2021/06/22 05:51:36;;;;;;;14.50;10.27;;;14.30;62.30;;;;;;5049276;28;20058;-79
2021/06/22 05:54:02;;;;;;;15.15;10.00;;;15.40;60.90;;;;;;5049871;28;20045;-79
2021/06/22 05:56:28;;;;;;;27.70;12.70;;;16.40;59.40;;;;;;5065669;28;20037;-80
2021/06/22 05:58:53;;;;;;;18.55;11.32;;;16.70;57.80;;;;;;5065432;28;20369;-80
2021/06/22 06:01:19;;;;;;;21.58;11.57;;;16.50;57.80;;;;;;5049079;28;20029;-80
2021/06/22 06:03:45;;;;;;;20.65;10.60;;;16.80;58.60;;;;;;5032990;28;20029;-81
2021/06/22 06:06:10;;;;;;;20.00;10.93;;;17.90;58.10;;;;;;5049085;28;20029;-80
2021/06/22 06:08:37;;;;;;;43.30;11.68;;;19.20;56.40;;;;;;5049338;28;20049;-80
2021/06/22 06:11:04;;;;;;;14.85;9.68;;;20.40;54.70;;;;;;5048615;28;20542;-80
2021/06/22 06:13:34;;;;;;;17.25;10.70;;;21.30;53.40;;;;;;5015399;28;20410;-80
2021/06/22 06:16:00;;;;;;;16.80;9.60;;;22.20;52.00;;;;;;5065863;28;20026;-80
2021/06/22 06:18:26;;;;;;;16.98;9.45;;;22.60;51.10;;;;;;5033214;28;20048;-81
2021/06/22 06:20:53;;;;;;;15.73;9.52;;;22.90;50.50;;;;;;5032267;28;20335;-81
2021/06/22 06:23:20;;;;;;;18.08;9.68;;;22.80;49.40;;;;;;5032566;28;20018;-80
2021/06/22 06:25:46;;;;;;;15.98;9.70;;;22.10;49.20;;;;;;5033514;28;20091;-80
2021/06/22 06:28:17;;;;;;;15.00;9.18;;;21.20;49.70;;;;;;5031497;28;20038;-80
2021/06/22 06:30:42;;;;;;;15.10;10.23;;;20.70;50.50;;;;;;5032592;28;20420;-81
2021/06/22 06:33:09;;;;;;;17.35;10.00;;;20.40;50.70;;;;;;5048060;28;20033;-80
2021/06/22 06:35:35;;;;;;;14.90;9.85;;;20.20;51.10;;;;;;5047674;28;20040;-80
2021/06/22 06:38:01;;;;;;;20.08;10.00;;;20.50;51.20;;;;;;5014620;28;20388;-80
2021/06/22 06:40:26;;;;;;;14.15;9.35;;;20.60;50.70;;;;;;5031244;28;20060;-80
2021/06/22 06:42:52;;;;;;;13.00;9.50;;;20.70;50.90;;;;;;5031320;28;20499;-79
2021/06/22 06:45:18;;;;;;;15.23;8.77;;;21.00;50.70;;;;;;5014157;28;20107;-81
2021/06/22 06:47:46;;;;;;;13.02;9.43;;;21.20;50.60;;;;;;5031508;28;20022;-80
2021/06/22 06:50:12;;;;;;;26.02;10.40;;;21.60;50.30;;;;;;5031390;28;20075;-81
2021/06/22 06:52:38;;;;;;;14.48;9.75;;;22.20;50.00;;;;;;5065375;28;20040;-81
2021/06/22 06:55:24;;;;;;;18.75;9.70;;;23.00;49.40;;;;;;5032454;28;20029;-80
2021/06/22 06:57:50;;;;;;;13.45;8.75;;;23.60;48.50;;;;;;5031339;28;20491;-81
2021/06/22 07:00:16;;;;;;;14.02;7.82;;;24.10;47.50;;;;;;5014764;28;20037;-81
2021/06/22 07:02:42;;;;;;;14.27;9.02;;;24.20;47.40;;;;;;5030416;28;20026;-81
2021/06/22 07:05:08;;;;;;;18.15;9.13;;;24.60;47.00;;;;;;5013800;28;20211;-80
2021/06/22 07:07:34;;;;;;;12.27;8.18;;;24.80;46.40;;;;;;5031648;28;20029;-81
2021/06/22 07:09:59;;;;;;;16.20;8.25;;;25.30;46.30;;;;;;5013833;28;20036;-81
2021/06/22 07:12:25;;;;;;;12.65;8.65;;;26.00;45.80;;;;;;5013659;28;20084;-80
2021/06/22 07:14:51;;;;;;;17.33;9.43;;;26.80;45.50;;;;;;5013592;28;20041;-80
2021/06/22 07:17:16;;;;;;;16.08;7.57;;;27.50;44.80;;;;;;5031286;28;20510;-81
2021/06/22 07:19:42;;;;;;;11.68;8.18;;;28.00;44.30;;;;;;5029897;28;20068;-80
2021/06/22 07:22:08;;;;;;;11.07;7.85;;;28.40;44.00;;;;;;5013443;28;20022;-80
2021/06/22 07:24:33;;;;;;;9.95;6.70;;;28.80;43.70;;;;;;5013150;28;20026;-81
2021/06/22 07:26:59;;;;;;;13.02;7.78;;;29.10;43.40;;;;;;5031437;28;20119;-81
2021/06/22 07:29:25;;;;;;;14.23;6.90;;;29.50;43.10;;;;;;5013553;28;20038;-81
2021/06/22 07:31:50;;;;;;;11.38;7.38;;;30.00;42.80;;;;;;5029591;28;20515;-81
2021/06/22 07:34:16;;;;;;;11.75;7.90;;;30.50;42.30;;;;;;5013492;28;20103;-82
2021/06/22 07:36:42;;;;;;;7.88;6.45;;;30.90;41.90;;;;;;5013375;28;20477;-81
2021/06/22 07:39:08;;;;;;;11.20;6.40;;;31.20;41.70;;;;;;5030002;28;20041;-80
2021/06/22 07:41:35;;;;;;;8.35;6.10;;;31.50;41.30;;;;;;5029674;28;20037;-79
2021/06/22 07:44:00;;;;;;;22.17;7.30;;;31.80;40.90;;;;;;5030856;28;20025;-79
2021/06/22 07:46:26;;;;;;;13.52;6.78;;;32.00;40.90;;;;;;5031508;28;20044;-81
2021/06/22 07:48:52;;;;;;;13.05;5.70;;;32.30;40.60;;;;;;5013490;28;20280;-81
2021/06/22 07:51:17;;;;;;;10.10;6.35;;;32.40;40.30;;;;;;5029888;28;20038;-81
2021/06/22 07:53:43;;;;;;;12.85;5.63;;;32.40;40.20;;;;;;5013006;28;20052;-81
2021/06/22 07:56:09;;;;;;;13.02;6.78;;;32.50;40.10;;;;;;5028991;28;20041;-81
2021/06/22 07:58:34;;;;;;;8.63;5.07;;;32.70;40.10;;;;;;5030255;28;20021;-80
2021/06/22 08:01:00;;;;;;;10.50;5.38;;;32.70;39.70;;;;;;5012723;28;20053;-80
2021/06/22 08:03:27;;;;;;;13.30;5.78;;;32.80;39.50;;;;;;5030987;28;20025;-81
2021/06/22 08:05:53;;;;;;;9.80;5.20;;;33.00;39.40;;;;;;5027871;28;20030;-79
2021/06/22 08:08:21;;;;;;;20.58;5.38;;;33.00;39.20;;;;;;5030082;28;20048;-81
2021/06/22 08:10:50;;;;;;;10.70;5.57;;;32.80;38.90;;;;;;5029632;28;20456;-79
2021/06/22 08:13:16;;;;;;;10.10;4.63;;;32.30;38.90;;;;;;5030813;28;20025;-79
2021/06/22 08:15:43;;;;;;;10.95;5.38;;;32.30;39.50;;;;;;5030942;28;20037;-79
2021/06/22 08:18:09;;;;;;;10.98;5.45;;;32.50;39.10;;;;;;5031213;28;20120;-80
2021/06/22 08:20:38;;;;;;;9.95;5.32;;;32.50;39.00;;;;;;5031568;28;20105;-78
2021/06/22 08:23:05;;;;;;;9.15;4.72;;;32.90;39.00;;;;;;5030727;28;20021;-81
2021/06/22 08:25:31;;;;;;;11.93;5.53;;;33.20;38.80;;;;;;5031862;28;20037;-80
2021/06/22 08:27:57;;;;;;;8.75;5.45;;;33.60;38.80;;;;;;5030629;28;20030;-80
2021/06/22 08:30:25;;;;;;;9.20;4.75;;;33.80;38.30;;;;;;5031375;28;20682;-81
2021/06/22 08:32:51;;;;;;;9.63;5.03;;;34.10;38.20;;;;;;5030238;28;20041;-80
2021/06/22 08:35:16;;;;;;;9.02;5.53;;;34.70;38.00;;;;;;5026933;28;20030;-80
2021/06/22 08:37:43;;;;;;;10.77;5.85;;;35.20;37.50;;;;;;5013574;28;20041;-80
2021/06/22 08:40:11;;;;;;;14.52;5.47;;;35.60;37.10;;;;;;5021643;28;20025;-80
2021/06/22 08:42:39;;;;;;;11.70;5.25;;;35.70;36.70;;;;;;5020972;28;20048;-78
2021/06/22 08:45:11;;;;;;;9.05;5.32;;;35.70;36.80;;;;;;5025007;28;20025;-80
2021/06/22 08:47:37;;;;;;;10.05;5.20;;;35.80;36.60;;;;;;5024230;28;20064;-80
2021/06/22 08:50:04;;;;;;;14.20;5.97;;;36.00;36.70;;;;;;5024541;28;20456;-80
2021/06/22 08:52:32;;;;;;;11.07;5.32;;;36.10;36.50;;;;;;5034642;28;20387;-80
2021/06/22 08:54:59;;;;;;;9.82;5.60;;;36.50;36.50;;;;;;5034421;28;20052;-80
2021/06/22 08:57:25;;;;;;;8.52;5.20;;;37.00;36.40;;;;;;5026453;28;20013;-79
2021/06/22 08:59:52;;;;;;;9.30;5.60;;;37.30;36.30;;;;;;5032953;28;20033;-80
2021/06/22 09:02:25;;;;;;;9.82;5.35;;;37.70;36.10;;;;;;5024559;28;20075;-80
2021/06/22 09:04:52;;;;;;;10.10;4.78;;;38.30;36.00;;;;;;5015961;28;20037;-80
2021/06/22 09:07:50;;;;;;;8.27;4.28;;;38.50;35.00;;;;;;5020279;28;20049;-82
2021/06/22 09:10:24;;;;;;;7.80;4.32;;;37.50;33.90;;;;;;5063037;28;20096;-80
2021/06/22 09:12:51;;;;;;;10.75;4.30;;;35.90;34.00;;;;;;5027870;28;20109;-81
2021/06/22 09:15:21;;;;;;;5.40;3.85;;;34.70;34.40;;;;;;5027439;28;20029;-81
2021/06/22 09:17:48;;;;;;;6.38;4.63;;;34.60;35.00;;;;;;5034564;28;20021;-80
2021/06/22 09:20:30;;;;;;;13.63;4.85;;;35.20;35.30;;;;;;5023751;28;20509;-81
2021/06/22 09:23:04;;;;;;;8.35;4.50;;;35.80;35.10;;;;;;5032329;28;20022;-81
2021/06/22 09:25:33;;;;;;;6.85;4.65;;;36.20;34.70;;;;;;5024902;28;20032;-80
2021/06/22 09:27:59;;;;;;;7.97;5.07;;;36.30;34.50;;;;;;5034362;28;20029;-80
2021/06/22 09:30:37;;;;;;;14.45;5.38;;;36.30;34.10;;;;;;5033397;28;20083;-80
2021/06/22 09:33:24;;;;;;;7.93;3.75;;;35.90;33.80;;;;;;5034970;28;20026;-81
2021/06/22 09:36:02;;;;;;;7.00;3.67;;;35.80;33.90;;;;;;5021259;28;20026;-81
2021/06/22 09:38:36;;;;;;;7.22;4.18;;;35.90;34.00;;;;;;5016650;28;20029;-80
2021/06/22 09:41:18;;;;;;;9.38;4.45;;;36.30;33.90;;;;;;5030353;28;20396;-80
2021/06/22 09:43:51;;;;;;;8.95;4.55;;;36.50;33.50;;;;;;5046928;28;20057;-78
2021/06/22 09:46:37;;;;;;;8.45;4.15;;;36.40;33.70;;;;;;5018040;28;20376;-80
2021/06/22 09:49:06;;;;;;;5.85;4.38;;;36.60;33.70;;;;;;5034316;28;20024;-80
2021/06/22 09:51:37;;;;;;;8.38;3.92;;;36.80;33.00;;;;;;5034438;28;20029;-79
2021/06/22 09:54:17;;;;;;;9.52;4.18;;;36.70;33.10;;;;;;5015588;28;20046;-79
2021/06/22 09:56:58;;;;;;;6.93;4.47;;;37.10;33.20;;;;;;5022491;28;20053;-79
2021/06/22 09:59:25;;;;;;;9.25;4.72;;;37.70;32.90;;;;;;5029705;28;20022;-80
2021/06/22 10:01:54;;;;;;;5.50;3.90;;;38.20;32.60;;;;;;5060995;28;20029;-79
2021/06/22 10:04:28;;;;;;;5.07;4.00;;;38.30;32.10;;;;;;5015399;28;20036;-80
2021/06/22 10:07:00;;;;;;;8.18;4.32;;;38.20;32.00;;;;;;5030205;28;20080;-80
2021/06/22 10:09:31;;;;;;;5.32;4.40;;;38.10;31.90;;;;;;5017674;28;20070;-79
2021/06/22 10:12:01;;;;;;;5.28;4.30;;;38.00;32.20;;;;;;5001514;28;20067;-79
2021/06/22 10:14:29;;;;;;;7.88;4.78;;;38.40;32.30;;;;;;5034019;28;20476;-81
2021/06/22 10:16:57;;;;;;;7.82;4.07;;;38.80;32.00;;;;;;5032794;28;20476;-78
2021/06/22 10:19:23;;;;;;;5.68;4.22;;;38.60;32.00;;;;;;5049820;28;20044;-78
2021/06/22 10:21:50;;;;;;;8.27;4.78;;;38.30;31.80;;;;;;5025119;28;20507;-80
2021/06/22 10:24:18;;;;;;;7.15;4.03;;;38.00;31.90;;;;;;5022381;28;20112;-79
2021/06/22 10:26:45;;;;;;;5.72;4.22;;;38.30;31.70;;;;;;5030507;28;20036;-80
2021/06/22 10:29:11;;;;;;;8.35;4.07;;;38.30;32.20;;;;;;5029183;28;20056;-80
2021/06/22 10:31:37;;;;;;;8.38;4.28;;;38.50;31.70;;;;;;5033373;28;20448;-78
2021/06/22 10:34:03;;;;;;;5.95;3.63;;;38.40;31.40;;;;;;5033216;28;20029;-79
2021/06/22 10:36:34;;;;;;;5.57;3.72;;;38.20;31.30;;;;;;5035567;28;20026;-80
2021/06/22 10:39:13;;;;;;;8.07;4.05;;;37.90;31.10;;;;;;5034444;28;20018;-79
2021/06/22 10:41:44;;;;;;;5.28;4.20;;;37.40;31.00;;;;;;5034355;28;20072;-78
2021/06/22 10:44:34;;;;;;;9.48;4.20;;;37.10;31.20;;;;;;5025104;28;20099;-78
2021/06/22 10:47:20;;;;;;;10.60;4.10;;;37.10;31.30;;;;;;5020554;28;20455;-80
2021/06/22 10:50:21;;;;;;;21.20;4.70;;;37.80;31.60;;;;;;5024875;28;20037;-77
2021/06/22 10:52:53;;;;;;;6.50;4.05;;;38.40;31.40;;;;;;5016802;28;20022;-81
2021/06/22 10:55:48;;;;;;;7.72;4.00;;;38.70;31.00;;;;;;5012852;28;20022;-79
2021/06/22 10:58:16;;;;;;;7.10;3.95;;;38.80;31.00;;;;;;5024938;28;20091;-79
2021/06/22 11:00:49;;;;;;;7.00;4.15;;;38.90;31.00;;;;;;5034469;28;20026;-77
2021/06/22 11:03:33;;;;;;;6.20;4.00;;;39.10;30.80;;;;;;5034190;28;20039;-78
2021/06/22 11:06:12;;;;;;;6.50;4.20;;;39.10;30.50;;;;;;5048752;28;20026;-79
2021/06/22 11:08:42;;;;;;;8.48;3.95;;;39.00;30.20;;;;;;5032153;28;20427;-81
2021/06/22 11:11:08;;;;;;;7.78;4.60;;;38.70;30.50;;;;;;5032266;28;20029;-78
2021/06/22 11:13:40;;;;;;;7.13;4.97;;;38.50;30.40;;;;;;5033136;28;20062;-80
2021/06/22 11:16:21;;;;;;;5.57;3.95;;;38.40;30.70;;;;;;5031244;28;20045;-81
2021/06/22 11:18:53;;;;;;;4.57;4.07;;;38.20;30.40;;;;;;5032083;28;20087;-79
2021/06/22 11:21:21;;;;;;;9.90;4.10;;;37.90;30.80;;;;;;5034054;28;20370;-79
2021/06/22 11:24:02;;;;;;;6.97;3.92;;;37.70;30.90;;;;;;5033586;28;20025;-80
2021/06/22 11:26:30;;;;;;;7.70;4.85;;;36.50;30.50;;;;;;5032928;28;20080;-79
2021/06/22 11:29:01;;;;;;;13.32;5.00;;;35.30;31.20;;;;;;5034600;28;20776;-79
2021/06/22 11:31:41;;;;;;;8.13;5.57;;;34.90;31.80;;;;;;5032319;28;20044;-80
2021/06/22 11:34:15;;;;;;;8.65;4.53;;;35.30;32.00;;;;;;5012330;28;20400;-79
2021/06/22 11:36:44;;;;;;;11.30;5.30;;;35.60;32.00;;;;;;5013379;28;20121;-80
2021/06/22 11:39:18;;;;;;;;;;;36.00;32.00;;;;;;5039627;28;20060;-79
2021/06/22 11:42:12;;;;;;;7.53;4.55;;;36.50;32.50;;;;;;5028849;28;19905;-79
2021/06/22 11:44:56;;;;;;;6.70;4.85;;;36.90;31.90;;;;;;5024392;28;20025;-79
2021/06/22 11:47:25;;;;;;;10.00;5.93;;;37.00;31.70;;;;;;5015083;28;20108;-79
2021/06/22 11:49:53;;;;;;;13.93;4.93;;;36.90;31.60;;;;;;5025296;28;20033;-71
2021/06/22 11:52:30;;;;;;;6.78;4.90;;;36.80;31.90;;;;;;5031264;28;20030;-79
2021/06/22 11:55:14;;;;;;;5.97;4.43;;;36.90;31.80;;;;;;5032173;28;20108;-80
2021/06/22 11:57:51;;;;;;;10.23;5.35;;;37.30;31.50;;;;;;5025814;28;20097;-80
2021/06/22 12:00:28;;;;;;;5.82;4.97;;;37.60;31.20;;;;;;5033907;28;20021;-82
2021/06/22 12:02:59;;;;;;;8.80;5.38;;;37.70;31.10;;;;;;5030640;28;20026;-80
2021/06/22 12:05:27;;;;;;;9.07;5.00;;;37.60;31.00;;;;;;5026214;28;20025;-80
2021/06/22 12:08:00;;;;;;;11.40;5.18;;;37.40;31.00;;;;;;5030853;28;20045;-78
2021/06/22 12:10:39;;;;;;;6.90;5.55;;;37.20;31.10;;;;;;5031165;28;20037;-79
2021/06/22 12:13:09;;;;;;;9.85;5.05;;;36.60;31.00;;;;;;5030164;28;20072;-80
2021/06/22 12:15:41;;;;;;;7.30;5.55;;;35.60;31.00;;;;;;5025593;28;20049;-80
2021/06/22 12:18:07;;;;;;;9.25;5.60;;;34.40;31.30;;;;;;5018274;28;20024;-80
2021/06/22 12:20:36;;;;;;;16.33;6.05;;;33.70;31.70;;;;;;5035396;28;20033;-80
2021/06/22 12:23:10;;;;;;;6.40;4.85;;;33.90;32.20;;;;;;5036318;28;20029;-79
2021/06/22 12:25:54;;;;;;;9.07;5.78;;;34.50;32.20;;;;;;5036531;28;20069;-79
2021/06/22 12:28:22;;;;;;;7.80;5.03;;;34.70;31.70;;;;;;5036495;28;20080;-80
2021/06/22 12:30:56;;;;;;;11.02;5.80;;;34.80;31.80;;;;;;5034631;28;20028;-80
2021/06/22 12:33:35;;;;;;;8.45;5.45;;;35.00;31.60;;;;;;5025943;28;20022;-80
2021/06/22 12:36:04;;;;;;;10.45;5.75;;;35.20;31.40;;;;;;5016165;28;20022;-80
2021/06/22 12:38:29;;;;;;;10.18;5.00;;;35.10;31.60;;;;;;5022040;28;20029;-81
2021/06/22 12:40:57;;;;;;;8.77;5.63;;;35.00;32.00;;;;;;5035841;28;20032;-83
2021/06/22 12:43:54;;;;;;;9.30;5.90;;;34.80;31.10;;;;;;5034343;28;20028;-81